Time;durP1;ratioP1;P1;durP2;ratioP2;P2;SDS_P1;SDS_P2;PMS_P1;PMS_P2;Temp;Humidity;BMP_temperature;BMP_pressure;BME280_temperature;BME280_humidity;BME280_pressure;Samples;Min_cycle;Max_cycle;Signal;HPM_P1;HPM_P2
2022/08/13 03:01:39;;;;;;;;;;;29.00;35.10;;;;;;5325831;23;45083;-59
2022/08/13 03:04:08;;;;;;;;;;;29.00;35.00;;;;;;4916567;28;45476;-59
2022/08/13 03:06:33;;;;;;;;;;;29.00;35.10;;;;;;4920875;28;45518;-60
2022/08/13 03:09:01;;;;;;;;;;;29.00;35.10;;;;;;4926394;28;45299;-60
2022/08/13 03:11:28;;;;;;;;;;;29.00;35.20;;;;;;4902916;28;45544;-60
2022/08/13 03:13:57;;;;;;;;;;;29.00;35.20;;;;;;4905308;28;45530;-60
2022/08/13 03:16:24;;;;;;;;;;;29.00;35.20;;;;;;4910537;28;44822;-62
2022/08/13 03:18:51;;;;;;;;;;;29.00;35.10;;;;;;4923791;28;45600;-61
2022/08/13 03:21:20;;;;;;;;;;;29.00;35.20;;;;;;4904791;28;45502;-62
2022/08/13 03:23:46;;;;;;;;;;;29.00;35.20;;;;;;4922632;28;44933;-61
2022/08/13 03:26:11;;;;;;;;;;;28.90;35.10;;;;;;4920968;28;44898;-60
2022/08/13 03:28:38;;;;;;;;;;;28.90;35.20;;;;;;4923747;28;45337;-62
2022/08/13 03:31:05;;;;;;;;;;;28.90;35.10;;;;;;4918220;28;45214;-61
2022/08/13 03:33:31;;;;;;;;;;;28.90;35.20;;;;;;4921408;28;44825;-61
2022/08/13 03:35:57;;;;;;;;;;;28.90;35.30;;;;;;4920166;28;45394;-61
2022/08/13 03:38:22;;;;;;;;;;;28.90;35.20;;;;;;4918764;28;46153;-60
2022/08/13 03:41:00;;;;;;;;;;;28.90;35.30;;;;;;4916198;28;45475;-59
2022/08/13 03:43:27;;;;;;;;;;;28.90;35.20;;;;;;4911267;28;45200;-61
2022/08/13 03:45:54;;;;;;;;;;;28.90;35.20;;;;;;4917604;28;45648;-60
2022/08/13 03:48:20;;;;;;;;;;;28.90;35.30;;;;;;4919250;28;46181;-61
2022/08/13 03:50:46;;;;;;;;;;;28.90;35.20;;;;;;4919880;28;45376;-62
2022/08/13 03:53:11;;;;;;;;;;;28.90;35.20;;;;;;4918615;28;45646;-61
2022/08/13 03:55:41;;;;;;;;;;;28.90;35.20;;;;;;4918380;28;45090;-61
2022/08/13 03:58:06;;;;;;;;;;;28.90;35.30;;;;;;4919898;28;45387;-61
2022/08/13 04:00:39;;;;;;;;;;;28.90;35.30;;;;;;4914161;28;45700;-62
2022/08/13 04:03:19;;;;;;;;;;;28.90;35.20;;;;;;4915104;28;45303;-61
2022/08/13 04:05:45;;;;;;;;;;;28.90;35.40;;;;;;4918823;28;44875;-62
2022/08/13 04:08:10;;;;;;;;;;;28.90;35.20;;;;;;4918964;28;45354;-61
2022/08/13 04:10:37;;;;;;;;;;;28.90;35.30;;;;;;4919417;28;45543;-61
2022/08/13 04:13:04;;;;;;;;;;;28.90;35.20;;;;;;4902780;28;45358;-61
2022/08/13 04:15:30;;;;;;;;;;;28.90;35.30;;;;;;4918868;28;45651;-62
2022/08/13 04:17:55;;;;;;;;;;;28.90;35.30;;;;;;4919057;28;45825;-61
2022/08/13 04:20:21;;;;;;;;;;;28.90;35.30;;;;;;4910268;28;44851;-61
2022/08/13 04:22:47;;;;;;;;;;;28.90;35.30;;;;;;4918822;28;45017;-61
2022/08/13 04:25:13;;;;;;;;;;;28.90;35.30;;;;;;4916309;28;45536;-61
2022/08/13 04:27:38;;;;;;;;;;;28.80;35.20;;;;;;4919337;28;46160;-61
2022/08/13 04:30:04;;;;;;;;;;;28.80;35.90;;;;;;4919767;28;44675;-62
2022/08/13 04:32:39;;;;;;;;;;;28.80;35.30;;;;;;4901992;28;44785;-62
2022/08/13 04:35:05;;;;;;;;;;;28.80;35.30;;;;;;4891492;28;45525;-59
2022/08/13 04:37:31;;;;;;;;;;;28.70;35.30;;;;;;4903282;28;45868;-61
2022/08/13 04:39:57;;;;;;;;;;;28.80;35.30;;;;;;4920911;28;45564;-60
2022/08/13 04:42:22;;;;;;;;;;;28.70;35.30;;;;;;4901630;28;45456;-60
2022/08/13 04:44:48;;;;;;;;;;;28.70;35.40;;;;;;4918433;28;45485;-62
2022/08/13 04:47:13;;;;;;;;;;;28.70;35.30;;;;;;4919842;28;46078;-60
2022/08/13 04:49:39;;;;;;;;;;;28.80;35.40;;;;;;4919944;28;45476;-62
2022/08/13 04:52:04;;;;;;;;;;;28.80;35.30;;;;;;4919712;28;44691;-61
2022/08/13 04:54:30;;;;;;;;;;;28.80;35.30;;;;;;4919669;28;45397;-62
2022/08/13 04:56:55;;;;;;;;;;;28.70;35.30;;;;;;4919541;28;45957;-61
2022/08/13 04:59:22;;;;;;;;;;;28.70;35.30;;;;;;4919271;28;45114;-61
2022/08/13 05:01:47;;;;;;;;;;;28.70;36.00;;;;;;4909463;28;45697;-60
2022/08/13 05:04:13;;;;;;;;;;;28.70;35.40;;;;;;4918145;28;45074;-60
2022/08/13 05:06:38;;;;;;;;;;;28.70;35.30;;;;;;4919665;28;47043;-60
2022/08/13 05:09:04;;;;;;;;;;;28.70;35.40;;;;;;4902194;28;44622;-62
2022/08/13 05:11:29;;;;;;;;;;;28.70;35.30;;;;;;4916824;28;45534;-60
2022/08/13 05:13:55;;;;;;;;;;;28.70;35.40;;;;;;4918679;28;45113;-61
2022/08/13 05:16:20;;;;;;;;;;;28.70;35.40;;;;;;4919044;28;46144;-61
2022/08/13 05:18:53;;;;;;;;;;;28.70;35.40;;;;;;4918533;28;45334;-60
2022/08/13 05:21:21;;;;;;;;;;;28.70;35.40;;;;;;4919395;28;45331;-61
2022/08/13 05:23:53;;;;;;;;;;;28.70;35.40;;;;;;4920113;28;45220;-61
2022/08/13 05:26:22;;;;;;;;;;;28.70;35.30;;;;;;4919469;28;47131;-62
2022/08/13 05:28:49;;;;;;;;;;;29.40;34.60;;;;;;4918265;28;45272;-60
2022/08/13 05:31:17;;;;;;;;;;;30.40;33.10;;;;;;4918219;28;45241;-61
2022/08/13 05:33:43;;;;;;;;;;;31.00;32.10;;;;;;4897831;28;45565;-60
2022/08/13 05:36:09;;;;;;;;;;;31.30;31.60;;;;;;4901997;28;46132;-61
2022/08/13 05:38:35;;;;;;;;;;;31.20;31.50;;;;;;4919723;28;45482;-61
2022/08/13 05:41:02;;;;;;;;;;;31.00;31.80;;;;;;4915608;28;44601;-61
2022/08/13 05:43:28;;;;;;;;;;;30.30;32.70;;;;;;4918013;28;45366;-60
2022/08/13 05:45:57;;;;;;;;;;;29.80;33.40;;;;;;4919530;28;46014;-63
2022/08/13 05:48:23;;;;;;;;;;;29.60;33.90;;;;;;4902245;28;45304;-63
2022/08/13 05:50:48;;;;;;;;;;;29.40;34.30;;;;;;4916295;28;45707;-63
2022/08/13 05:53:15;;;;;;;;;;;29.20;34.50;;;;;;4916645;28;45670;-63
2022/08/13 05:55:40;;;;;;;;;;;29.20;34.70;;;;;;4917482;28;46889;-63
2022/08/13 05:58:06;;;;;;;;;;;29.10;34.80;;;;;;4919238;28;45056;-62
2022/08/13 06:03:24;;;;;;;;;;;29.00;35.00;;;;;;4916852;28;45401;-61
2022/08/13 06:05:54;;;;;;;;;;;29.00;35.00;;;;;;4914032;28;46080;-62
2022/08/13 06:08:23;;;;;;;;;;;29.00;35.00;;;;;;4912898;28;45180;-62
2022/08/13 06:10:48;;;;;;;;;;;29.00;35.00;;;;;;4920674;28;45542;-62
2022/08/13 06:13:15;;;;;;;;;;;29.00;35.00;;;;;;4918265;28;44842;-61
2022/08/13 06:15:42;;;;;;;;;;;29.00;35.00;;;;;;4883925;28;45872;-62
2022/08/13 06:18:09;;;;;;;;;;;29.00;35.00;;;;;;4912173;28;45256;-62
2022/08/13 06:20:34;;;;;;;;;;;29.00;34.90;;;;;;4918090;28;45176;-63
2022/08/13 06:23:00;;;;;;;;;;;29.10;35.00;;;;;;4915511;28;44666;-62
2022/08/13 06:25:27;;;;;;;;;;;29.10;34.90;;;;;;4900997;28;45314;-64
2022/08/13 06:27:52;;;;;;;;;;;29.10;34.90;;;;;;4918812;28;45368;-62
2022/08/13 06:30:18;;;;;;;;;;;29.20;34.80;;;;;;4916543;28;45605;-63
2022/08/13 06:32:44;;;;;;;;;;;29.30;34.70;;;;;;4917831;28;45692;-62
2022/08/13 06:35:09;;;;;;;;;;;29.30;34.50;;;;;;4917183;28;46082;-62
2022/08/13 06:37:35;;;;;;;;;;;29.40;34.50;;;;;;4918008;28;45210;-62
2022/08/13 06:40:00;;;;;;;;;;;29.40;34.40;;;;;;4915326;28;44607;-63
2022/08/13 06:42:29;;;;;;;;;;;29.50;34.40;;;;;;4890396;28;44999;-62
2022/08/13 06:44:55;;;;;;;;;;;29.50;34.40;;;;;;4895278;28;45290;-62
2022/08/13 06:47:22;;;;;;;;;;;29.40;34.40;;;;;;4901104;28;45611;-63
2022/08/13 06:49:47;;;;;;;;;;;29.40;35.00;;;;;;4918530;28;45443;-62
2022/08/13 06:52:13;;;;;;;;;;;29.40;35.00;;;;;;4917355;28;44780;-62
2022/08/13 06:54:38;;;;;;;;;;;29.40;34.50;;;;;;4917296;28;45947;-61
2022/08/13 06:57:04;;;;;;;;;;;29.40;34.50;;;;;;4900338;28;45369;-62
2022/08/13 06:59:33;;;;;;;;;;;29.30;34.50;;;;;;4916841;28;44786;-62
2022/08/13 07:02:01;;;;;;;;;;;29.40;34.50;;;;;;4913156;28;45356;-63
2022/08/13 07:04:27;;;;;;;;;;;29.40;34.60;;;;;;4900569;28;47137;-62
2022/08/13 07:06:53;;;;;;;;;;;29.40;34.50;;;;;;4904077;28;45373;-61
2022/08/13 07:09:19;;;;;;;;;;;29.40;34.50;;;;;;4902734;28;45407;-63
2022/08/13 07:11:45;;;;;;;;;;;29.50;34.50;;;;;;4886770;28;45538;-63
2022/08/13 07:14:11;;;;;;;;;;;29.50;34.50;;;;;;4918552;28;46088;-63
2022/08/13 07:16:37;;;;;;;;;;;29.50;34.40;;;;;;4920977;28;44778;-62
2022/08/13 07:19:02;;;;;;;;;;;29.50;34.50;;;;;;4913906;28;45482;-63
2022/08/13 07:21:28;;;;;;;;;;;29.50;34.50;;;;;;4920167;28;45484;-62
2022/08/13 07:23:54;;;;;;;;;;;29.50;34.60;;;;;;4919537;28;46083;-63
2022/08/13 07:26:20;;;;;;;;;;;29.50;34.60;;;;;;4920177;28;45413;-62
2022/08/13 07:28:46;;;;;;;;;;;29.50;34.60;;;;;;4921545;28;45366;-63
2022/08/13 07:31:13;;;;;;;;;;;29.40;34.60;;;;;;4902564;28;45278;-60
2022/08/13 07:33:42;;;;;;;;;;;29.40;34.60;;;;;;4921360;28;45647;-59
2022/08/13 07:36:10;;;;;;;;;;;29.50;34.70;;;;;;4920999;28;45399;-60
2022/08/13 07:38:36;;;;;;;;;;;29.50;34.70;;;;;;4920886;28;45111;-59
2022/08/13 07:41:02;;;;;;;;;;;29.50;34.60;;;;;;4918350;28;45527;-61
2022/08/13 07:43:29;;;;;;;;;;;29.50;34.60;;;;;;4903226;28;45409;-63
2022/08/13 07:46:07;;;;;;;;;;;29.50;34.60;;;;;;4911888;28;44881;-62
2022/08/13 07:48:33;;;;;;;;;;;29.50;34.50;;;;;;4921030;28;45260;-62
2022/08/13 07:50:59;;;;;;;;;;;29.50;34.50;;;;;;4901592;28;45233;-61
2022/08/13 07:53:24;;;;;;;;;;;29.60;34.60;;;;;;4919572;28;47259;-62
2022/08/13 07:55:51;;;;;;;;;;;29.60;34.50;;;;;;4920167;28;45575;-63
2022/08/13 07:58:16;;;;;;;;;;;29.60;34.50;;;;;;4903162;28;45584;-62
2022/08/13 08:00:45;;;;;;;;;;;29.60;34.50;;;;;;4899273;28;45230;-62
2022/08/13 08:03:10;;;;;;;;;;;29.60;34.40;;;;;;4918029;28;46949;-62
2022/08/13 08:05:36;;;;;;;;;;;29.60;34.40;;;;;;4918681;28;45326;-62
2022/08/13 08:08:03;;;;;;;;;;;29.60;34.40;;;;;;4919760;28;45145;-60
2022/08/13 08:10:29;;;;;;;;;;;29.60;34.40;;;;;;4918525;28;45278;-63
2022/08/13 08:12:59;;;;;;;;;;;29.60;35.00;;;;;;4919166;28;45849;-62
2022/08/13 08:15:25;;;;;;;;;;;29.60;34.40;;;;;;4919445;28;45279;-63
2022/08/13 08:17:50;;;;;;;;;;;29.70;34.50;;;;;;4919283;28;45195;-62
2022/08/13 08:20:17;;;;;;;;;;;29.70;34.40;;;;;;4919904;28;45365;-63
2022/08/13 08:22:44;;;;;;;;;;;29.70;34.40;;;;;;4918420;28;46984;-62
2022/08/13 08:25:10;;;;;;;;;;;29.70;34.40;;;;;;4919343;28;45423;-62
2022/08/13 08:27:36;;;;;;;;;;;29.70;34.40;;;;;;4919281;28;45149;-62
2022/08/13 08:30:01;;;;;;;;;;;29.70;34.40;;;;;;4914325;28;45445;-62
2022/08/13 08:32:27;;;;;;;;;;;29.80;35.10;;;;;;4919491;28;46256;-60
2022/08/13 08:34:53;;;;;;;;;;;29.80;34.50;;;;;;4918139;28;44917;-60
2022/08/13 08:42:48;;;;;;;;;;;29.80;34.50;;;;;;4919825;28;46167;-62
2022/08/13 08:45:18;;;;;;;;;;;29.80;34.50;;;;;;4917492;28;45628;-61
2022/08/13 08:47:44;;;;;;;;;;;29.80;34.40;;;;;;4918767;28;45275;-63
2022/08/13 08:50:10;;;;;;;;;;;29.80;35.10;;;;;;4919308;28;45619;-63
2022/08/13 08:55:20;;;;;;;;;;;29.80;34.50;;;;;;4913264;28;44687;-62
2022/08/13 08:57:46;;;;;;;;;;;29.80;34.40;;;;;;4918479;28;45197;-62
2022/08/13 09:00:15;;;;;;;;;;;29.90;34.50;;;;;;4919116;28;45678;-61
2022/08/13 09:02:40;;;;;;;;;;;29.80;34.50;;;;;;4924475;28;46198;-63
2022/08/13 09:05:13;;;;;;;;;;;29.90;34.50;;;;;;4927681;28;45281;-61
2022/08/13 09:07:39;;;;;;;;;;;29.90;34.50;;;;;;4920815;28;45348;-61
2022/08/13 09:10:04;;;;;;;;;;;29.90;34.40;;;;;;4926819;28;45514;-62
2022/08/13 09:12:30;;;;;;;;;;;29.90;34.40;;;;;;4920175;28;46197;-63
2022/08/13 09:14:58;;;;;;;;;;;29.90;34.40;;;;;;4918581;28;45302;-62
2022/08/13 09:17:24;;;;;;;;;;;29.90;34.50;;;;;;4909584;28;45178;-62
2022/08/13 09:19:50;;;;;;;;;;;30.00;34.50;;;;;;4921780;28;45176;-63
2022/08/13 09:22:19;;;;;;;;;;;30.00;34.50;;;;;;4908796;28;46181;-62
2022/08/13 09:24:46;;;;;;;;;;;29.90;34.40;;;;;;4927288;28;45179;-62
2022/08/13 09:27:15;;;;;;;;;;;30.00;34.40;;;;;;4904315;28;45380;-62
2022/08/13 09:29:42;;;;;;;;;;;30.00;34.40;;;;;;4899932;28;45572;-63
2022/08/13 09:32:08;;;;;;;;;;;29.90;34.30;;;;;;4924467;28;45999;-62
2022/08/13 09:34:34;;;;;;;;;;;30.00;34.40;;;;;;4928809;28;44679;-62
2022/08/13 09:37:01;;;;;;;;;;;30.00;34.50;;;;;;4903744;28;45368;-63
2022/08/13 09:39:30;;;;;;;;;;;30.00;34.40;;;;;;4902079;28;44949;-61
2022/08/13 09:41:56;;;;;;;;;;;30.00;34.40;;;;;;4898201;28;45896;-62
2022/08/13 09:44:26;;;;;;;;;;;30.00;34.40;;;;;;4906009;28;45154;-63
2022/08/13 09:46:52;;;;;;;;;;;30.00;34.40;;;;;;4906294;28;45209;-62
2022/08/13 09:49:18;;;;;;;;;;;30.00;34.40;;;;;;4920672;28;45285;-62
2022/08/13 09:51:44;;;;;;;;;;;30.00;34.30;;;;;;4920787;28;45996;-62
2022/08/13 09:54:09;;;;;;;;;;;30.00;34.40;;;;;;4922941;28;45319;-62
2022/08/13 09:56:37;;;;;;;;;;;30.00;34.30;;;;;;4920918;28;45185;-61
2022/08/13 09:59:06;;;;;;;;;;;30.10;34.40;;;;;;4926752;28;45516;-62
2022/08/13 10:01:34;;;;;;;;;;;30.10;34.30;;;;;;4919468;28;46050;-63
2022/08/13 10:03:59;;;;;;;;;;;30.10;34.40;;;;;;4919073;28;45022;-62
2022/08/13 10:06:28;;;;;;;;;;;30.10;34.40;;;;;;4903992;28;45548;-62
2022/08/13 10:08:54;;;;;;;;;;;30.10;34.40;;;;;;4918956;28;45264;-62
2022/08/13 10:11:21;;;;;;;;;;;30.10;34.30;;;;;;4900396;28;47132;-62
2022/08/13 10:13:46;;;;;;;;;;;30.10;34.30;;;;;;4918697;28;45127;-61
2022/08/13 10:16:12;;;;;;;;;;;30.10;34.30;;;;;;4916570;28;44744;-62
2022/08/13 10:18:37;;;;;;;;;;;30.10;34.30;;;;;;4918337;28;45618;-63
2022/08/13 10:21:03;;;;;;;;;;;30.10;34.30;;;;;;4915242;28;47061;-62
2022/08/13 10:23:29;;;;;;;;;;;30.10;34.30;;;;;;4918820;28;44592;-63
2022/08/13 10:25:54;;;;;;;;;;;30.20;34.30;;;;;;4913369;28;45066;-62
2022/08/13 10:28:27;;;;;;;;;;;30.20;34.30;;;;;;4918595;28;45174;-62
2022/08/13 10:30:54;;;;;;;;;;;30.20;34.30;;;;;;4899059;28;46144;-62
2022/08/13 10:33:20;;;;;;;;;;;30.20;34.30;;;;;;4917196;28;45285;-62
2022/08/13 10:35:51;;;;;;;;;;;30.20;34.30;;;;;;4917753;28;45372;-63
2022/08/13 10:38:17;;;;;;;;;;;30.20;34.30;;;;;;4919234;28;45224;-62
2022/08/13 10:40:43;;;;;;;;;;;30.20;34.30;;;;;;4919459;28;45868;-61
2022/08/13 10:43:09;;;;;;;;;;;30.20;34.30;;;;;;4921488;28;45598;-63
2022/08/13 10:45:34;;;;;;;;;;;30.20;34.30;;;;;;4920179;28;45053;-60
2022/08/13 10:48:01;;;;;;;;;;;30.20;34.30;;;;;;4921595;28;45367;-59
2022/08/13 10:50:29;;;;;;;;;;;30.20;34.30;;;;;;4915792;28;46277;-61
2022/08/13 10:52:55;;;;;;;;;;;30.20;34.30;;;;;;4921418;28;45290;-61
2022/08/13 10:55:21;;;;;;;;;;;30.20;34.20;;;;;;4920643;28;45497;-60
2022/08/13 10:57:47;;;;;;;;;;;30.20;34.30;;;;;;4921154;28;45312;-61
2022/08/13 11:00:14;;;;;;;;;;;30.20;34.20;;;;;;4919525;28;46350;-61
2022/08/13 11:02:39;;;;;;;;;;;30.20;34.20;;;;;;4915323;28;45196;-59
2022/08/13 11:05:05;;;;;;;;;;;30.20;34.20;;;;;;4901106;28;45406;-61
2022/08/13 11:07:32;;;;;;;;;;;30.20;34.20;;;;;;4920903;28;45293;-61
2022/08/13 11:09:58;;;;;;;;;;;30.20;34.20;;;;;;4930311;28;45509;-61
2022/08/13 11:12:24;;;;;;;;;;;30.20;34.20;;;;;;4924559;28;44702;-61
2022/08/13 11:14:50;;;;;;;;;;;30.20;34.20;;;;;;4929035;28;45315;-61
2022/08/13 11:17:17;;;;;;;;;;;30.20;34.20;;;;;;4933332;28;45775;-60
2022/08/13 11:19:45;;;;;;;;;;;30.20;34.20;;;;;;4927492;28;45980;-59
2022/08/13 11:22:11;;;;;;;;;;;30.20;34.20;;;;;;4922505;28;45250;-61
2022/08/13 11:24:36;;;;;;;;;;;30.20;34.20;;;;;;4925383;28;45327;-60
2022/08/13 11:27:02;;;;;;;;;;;30.20;34.20;;;;;;4900853;28;46006;-61
2022/08/13 11:29:28;;;;;;;;;;;30.20;34.20;;;;;;4903304;28;45954;-61
2022/08/13 11:31:53;;;;;;;;;;;30.20;34.20;;;;;;4902813;28;45472;-60
2022/08/13 11:34:19;;;;;;;;;;;30.20;34.20;;;;;;4910308;28;45738;-61
2022/08/13 11:36:44;;;;;;;;;;;30.20;34.20;;;;;;4908202;28;45946;-61
2022/08/13 11:39:11;;;;;;;;;;;30.30;34.30;;;;;;4910355;28;46341;-61
2022/08/13 11:41:36;;;;;;;;;;;30.30;34.30;;;;;;4909510;28;44692;-61
2022/08/13 11:44:02;;;;;;;;;;;30.30;34.20;;;;;;4909416;28;45415;-61
2022/08/13 11:46:28;;;;;;;;;;;30.30;34.20;;;;;;4923537;28;45210;-60
2022/08/13 11:48:53;;;;;;;;;;;30.30;34.20;;;;;;4909008;28;45916;-61
2022/08/13 11:51:19;;;;;;;;;;;30.30;34.20;;;;;;4908397;28;45548;-61
2022/08/13 11:53:44;;;;;;;;;;;30.30;34.20;;;;;;4914812;28;44878;-61
2022/08/13 11:56:10;;;;;;;;;;;30.30;34.20;;;;;;4911434;28;45521;-61
2022/08/13 11:58:35;;;;;;;;;;;30.30;34.20;;;;;;4911268;28;45239;-60
2022/08/13 12:01:05;;;;;;;;;;;30.30;34.20;;;;;;4899261;28;45428;-61
2022/08/13 12:03:30;;;;;;;;;;;30.30;34.20;;;;;;4915331;28;45087;-61
2022/08/13 12:05:56;;;;;;;;;;;30.30;34.10;;;;;;4910167;28;44984;-60
2022/08/13 12:08:21;;;;;;;;;;;30.30;34.20;;;;;;4914290;28;45066;-61
2022/08/13 12:10:47;;;;;;;;;;;30.30;34.20;;;;;;4915030;28;45179;-61
2022/08/13 12:13:12;;;;;;;;;;;30.30;34.10;;;;;;4915915;28;45194;-60
2022/08/13 12:15:38;;;;;;;;;;;30.30;34.10;;;;;;4913255;28;46850;-60
2022/08/13 12:18:04;;;;;;;;;;;30.30;34.10;;;;;;4913597;28;45137;-61
2022/08/13 12:20:29;;;;;;;;;;;30.30;34.20;;;;;;4915925;28;45509;-60
2022/08/13 12:22:56;;;;;;;;;;;30.30;34.20;;;;;;4912233;28;44778;-60
2022/08/13 12:25:23;;;;;;;;;;;30.30;34.20;;;;;;4912825;28;45246;-61
2022/08/13 12:27:48;;;;;;;;;;;30.30;34.20;;;;;;4915768;28;45978;-62
2022/08/13 12:30:14;;;;;;;;;;;30.40;34.30;;;;;;4909869;28;45059;-61
2022/08/13 12:32:41;;;;;;;;;;;30.40;34.30;;;;;;4915139;28;45595;-59
2022/08/13 12:35:07;;;;;;;;;;;30.40;34.20;;;;;;4915530;28;45677;-61
2022/08/13 12:37:32;;;;;;;;;;;30.40;34.20;;;;;;4913534;28;46895;-60
2022/08/13 12:39:58;;;;;;;;;;;30.40;34.20;;;;;;4913894;28;45232;-61
2022/08/13 12:42:24;;;;;;;;;;;30.40;34.20;;;;;;4909809;28;45096;-61
2022/08/13 12:44:50;;;;;;;;;;;30.40;34.20;;;;;;4918587;28;45447;-60
2022/08/13 12:47:15;;;;;;;;;;;30.40;34.20;;;;;;4914110;28;45616;-61
2022/08/13 12:49:41;;;;;;;;;;;30.40;34.20;;;;;;4914661;28;45247;-61
2022/08/13 12:52:06;;;;;;;;;;;30.40;34.20;;;;;;4912635;28;45225;-61
2022/08/13 12:54:32;;;;;;;;;;;30.40;34.30;;;;;;4909369;28;45220;-61
2022/08/13 12:56:57;;;;;;;;;;;30.40;34.20;;;;;;4915462;28;45604;-61
2022/08/13 12:59:23;;;;;;;;;;;30.40;34.20;;;;;;4913549;28;45299;-61
2022/08/13 13:01:52;;;;;;;;;;;30.40;34.20;;;;;;4909595;28;45628;-61
2022/08/13 13:04:22;;;;;;;;;;;30.40;34.20;;;;;;4914688;28;45291;-61
2022/08/13 13:06:48;;;;;;;;;;;30.40;34.20;;;;;;4915271;28;44918;-61
2022/08/13 13:09:13;;;;;;;;;;;30.40;34.20;;;;;;4913337;28;45564;-60
2022/08/13 13:11:39;;;;;;;;;;;30.40;34.20;;;;;;4914605;28;45596;-61
2022/08/13 13:14:04;;;;;;;;;;;30.50;34.20;;;;;;4915840;28;46190;-60
2022/08/13 13:16:31;;;;;;;;;;;30.40;34.10;;;;;;4915152;28;46431;-59
2022/08/13 13:18:58;;;;;;;;;;;30.50;34.20;;;;;;4909282;28;45316;-60
2022/08/13 13:21:23;;;;;;;;;;;30.50;34.10;;;;;;4909759;28;44778;-60
2022/08/13 13:23:49;;;;;;;;;;;30.50;34.20;;;;;;4911367;28;45268;-61
2022/08/13 13:26:14;;;;;;;;;;;30.50;34.20;;;;;;4911485;28;45662;-61
2022/08/13 13:28:40;;;;;;;;;;;30.50;34.20;;;;;;4915148;28;45467;-60
2022/08/13 13:31:06;;;;;;;;;;;30.50;34.10;;;;;;4913386;28;44805;-61
2022/08/13 13:33:31;;;;;;;;;;;30.50;34.10;;;;;;4909805;28;45203;-59
2022/08/13 13:35:57;;;;;;;;;;;30.50;34.20;;;;;;4911236;28;45370;-61
2022/08/13 13:38:23;;;;;;;;;;;30.50;34.10;;;;;;4911624;28;45066;-60
2022/08/13 13:40:49;;;;;;;;;;;30.50;34.10;;;;;;4912523;28;45339;-61
2022/08/13 13:43:15;;;;;;;;;;;30.50;34.20;;;;;;4910063;28;45184;-59
2022/08/13 13:45:41;;;;;;;;;;;30.40;34.10;;;;;;4909311;28;45477;-60
2022/08/13 13:48:24;;;;;;;;;;;30.50;34.10;;;;;;4911777;28;45371;-61
2022/08/13 13:50:51;;;;;;;;;;;30.50;34.20;;;;;;4911148;28;45231;-61
2022/08/13 13:53:16;;;;;;;;;;;30.50;34.10;;;;;;4914436;28;45439;-61
2022/08/13 13:55:42;;;;;;;;;;;30.50;34.10;;;;;;4910347;28;45635;-62
2022/08/13 13:58:07;;;;;;;;;;;30.50;34.20;;;;;;4912577;28;45232;-60
2022/08/13 14:00:34;;;;;;;;;;;30.50;34.20;;;;;;4912128;28;45370;-61
2022/08/13 14:03:00;;;;;;;;;;;30.50;34.10;;;;;;4912610;28;45508;-61
2022/08/13 14:05:26;;;;;;;;;;;30.50;34.10;;;;;;4909605;28;46929;-61
2022/08/13 14:07:58;;;;;;;;;;;30.50;34.70;;;;;;4912951;28;45244;-60
2022/08/13 14:10:25;;;;;;;;;;;30.50;34.10;;;;;;4895321;28;45159;-61
2022/08/13 14:12:50;;;;;;;;;;;30.50;34.10;;;;;;4910829;28;45367;-60
2022/08/13 14:15:16;;;;;;;;;;;30.60;34.10;;;;;;4902930;28;45347;-61
2022/08/13 14:17:42;;;;;;;;;;;30.60;34.10;;;;;;4910187;28;45646;-60
2022/08/13 14:20:09;;;;;;;;;;;30.60;34.10;;;;;;4894195;28;45499;-59
2022/08/13 14:22:38;;;;;;;;;;;30.60;34.10;;;;;;4910731;28;45365;-60
2022/08/13 14:25:04;;;;;;;;;;;30.60;34.00;;;;;;4909553;28;45142;-61
2022/08/13 14:27:30;;;;;;;;;;;30.60;34.00;;;;;;4910088;28;45360;-61
2022/08/13 14:29:56;;;;;;;;;;;30.60;34.00;;;;;;4900984;28;45439;-61
2022/08/13 14:32:22;;;;;;;;;;;30.60;33.90;;;;;;4913195;28;45660;-61
2022/08/13 14:34:47;;;;;;;;;;;30.60;33.90;;;;;;4913172;28;45288;-62
2022/08/13 14:37:13;;;;;;;;;;;30.60;33.90;;;;;;4891993;28;45222;-61
2022/08/13 14:39:39;;;;;;;;;;;30.60;33.90;;;;;;4896120;28;45564;-60
2022/08/13 14:42:05;;;;;;;;;;;30.60;33.90;;;;;;4917720;28;45755;-61
2022/08/13 14:44:30;;;;;;;;;;;30.60;33.90;;;;;;4912824;28;45374;-60
2022/08/13 14:46:56;;;;;;;;;;;30.60;33.90;;;;;;4897503;28;44985;-61
2022/08/13 14:49:21;;;;;;;;;;;30.60;33.90;;;;;;4912334;28;45305;-61
2022/08/13 14:51:48;;;;;;;;;;;30.60;34.00;;;;;;4910686;28;45202;-61
2022/08/13 14:54:13;;;;;;;;;;;30.60;34.00;;;;;;4912864;28;45595;-61
2022/08/13 14:56:39;;;;;;;;;;;30.60;34.00;;;;;;4912631;28;45237;-60
2022/08/13 14:59:04;;;;;;;;;;;30.60;34.10;;;;;;4911353;28;45895;-61
2022/08/13 15:01:30;;;;;;;;;;;30.60;34.10;;;;;;4916548;28;44902;-60
2022/08/13 15:03:56;;;;;;;;;;;30.60;34.10;;;;;;4912172;28;45596;-61
2022/08/13 15:06:21;;;;;;;;;;;30.60;34.10;;;;;;4912595;28;45525;-59
2022/08/13 15:08:47;;;;;;;;;;;30.60;34.10;;;;;;4911301;28;45080;-61
2022/08/13 15:11:13;;;;;;;;;;;30.60;34.10;;;;;;4912259;28;45816;-60
2022/08/13 15:13:39;;;;;;;;;;;30.60;34.10;;;;;;4896687;28;46276;-60
2022/08/13 15:16:07;;;;;;;;;;;30.60;34.00;;;;;;4894048;28;45142;-61
2022/08/13 15:18:32;;;;;;;;;;;30.60;34.00;;;;;;4891692;28;45205;-60
2022/08/13 15:20:58;;;;;;;;;;;30.60;34.10;;;;;;4911845;28;45636;-61
2022/08/13 15:23:23;;;;;;;;;;;30.60;34.00;;;;;;4906758;28;46108;-60
2022/08/13 15:25:49;;;;;;;;;;;30.60;34.00;;;;;;4912308;28;45646;-60
2022/08/13 15:28:14;;;;;;;;;;;30.60;34.00;;;;;;4914686;28;44789;-59
2022/08/13 15:30:40;;;;;;;;;;;30.60;34.00;;;;;;4915938;28;45618;-61
2022/08/13 15:33:06;;;;;;;;;;;30.60;34.00;;;;;;4915030;28;46039;-60
2022/08/13 15:35:40;;;;;;;;;;;30.60;34.00;;;;;;4914953;28;45413;-60
2022/08/13 15:38:09;;;;;;;;;;;30.60;34.00;;;;;;4915685;28;45312;-61
2022/08/13 15:40:34;;;;;;;;;;;30.60;34.00;;;;;;4914240;28;45472;-60
2022/08/13 15:43:04;;;;;;;;;;;30.60;34.00;;;;;;4913818;28;46853;-61
2022/08/13 15:45:29;;;;;;;;;;;30.60;34.00;;;;;;4911792;28;45365;-61
2022/08/13 15:47:55;;;;;;;;;;;30.60;34.00;;;;;;4912626;28;45243;-61
2022/08/13 15:50:25;;;;;;;;;;;30.60;34.00;;;;;;4914016;28;45081;-61
2022/08/13 15:52:51;;;;;;;;;;;30.60;34.00;;;;;;4915898;28;47016;-61
2022/08/13 15:55:17;;;;;;;;;;;30.60;34.10;;;;;;4914809;28;45201;-60
2022/08/13 15:57:44;;;;;;;;;;;30.60;34.10;;;;;;4915927;28;45079;-59
2022/08/13 16:00:14;;;;;;;;;;;30.60;34.20;;;;;;4896551;28;45211;-60
2022/08/13 16:02:41;;;;;;;;;;;30.60;34.10;;;;;;4912011;28;46339;-60
2022/08/13 16:05:07;;;;;;;;;;;30.60;34.20;;;;;;4913848;28;45121;-60
2022/08/13 16:07:34;;;;;;;;;;;30.60;34.10;;;;;;4898893;28;45229;-61
2022/08/13 16:09:59;;;;;;;;;;;30.60;34.10;;;;;;4914478;28;45435;-62
2022/08/13 16:12:25;;;;;;;;;;;30.60;34.20;;;;;;4901470;28;46158;-60
2022/08/13 16:14:50;;;;;;;;;;;30.60;34.20;;;;;;4914422;28;45287;-60
2022/08/13 16:17:17;;;;;;;;;;;30.60;34.20;;;;;;4908304;28;45083;-60
2022/08/13 16:19:43;;;;;;;;;;;30.60;34.20;;;;;;4901450;28;45526;-61
2022/08/13 16:22:23;;;;;;;;;;;30.60;34.20;;;;;;4875387;28;45700;-60
2022/08/13 16:24:49;;;;;;;;;;;30.60;34.80;;;;;;4908332;28;44712;-62
2022/08/13 16:27:14;;;;;;;;;;;30.60;34.20;;;;;;4907660;28;45235;-60
2022/08/13 16:29:40;;;;;;;;;;;30.60;34.20;;;;;;4889058;28;45554;-61
2022/08/13 16:32:06;;;;;;;;;;;30.60;34.30;;;;;;4872828;28;46910;-61
2022/08/13 16:34:42;;;;;;;;;;;30.50;34.30;;;;;;4887326;28;45668;-61
2022/08/13 16:37:09;;;;;;;;;;;30.50;34.20;;;;;;4907718;28;45401;-59
2022/08/13 16:39:35;;;;;;;;;;;30.50;34.20;;;;;;4908084;28;45591;-60
2022/08/13 16:42:01;;;;;;;;;;;30.50;34.30;;;;;;4901705;28;46150;-61
2022/08/13 16:44:27;;;;;;;;;;;30.50;34.40;;;;;;4887430;28;45121;-61
2022/08/13 16:46:52;;;;;;;;;;;30.50;34.40;;;;;;4895173;28;45355;-61
2022/08/13 16:49:18;;;;;;;;;;;30.50;34.40;;;;;;4909901;28;45199;-61
2022/08/13 16:51:43;;;;;;;;;;;30.50;34.40;;;;;;4905251;28;45857;-61
2022/08/13 16:54:09;;;;;;;;;;;30.50;34.40;;;;;;4910159;28;45437;-61
2022/08/13 16:56:34;;;;;;;;;;;30.50;34.50;;;;;;4911362;28;45264;-61
2022/08/13 16:59:00;;;;;;;;;;;30.50;34.50;;;;;;4911513;28;46496;-61
2022/08/13 17:01:26;;;;;;;;;;;30.50;34.50;;;;;;4909074;28;45918;-60
2022/08/13 17:09:33;;;;;;;;;;;30.50;34.50;;;;;;4870038;28;45700;-61
2022/08/13 17:11:59;;;;;;;;;;;30.50;34.50;;;;;;4907117;28;47215;-62
2022/08/13 17:14:26;;;;;;;;;;;30.50;34.50;;;;;;4909822;28;45280;-60
2022/08/13 17:17:02;;;;;;;;;;;30.50;34.60;;;;;;4894541;28;45545;-61
2022/08/13 17:19:29;;;;;;;;;;;30.50;34.60;;;;;;4912093;28;45961;-61
2022/08/13 17:21:58;;;;;;;;;;;30.50;34.60;;;;;;4912741;28;46413;-59
2022/08/13 17:24:24;;;;;;;;;;;30.50;34.60;;;;;;4895892;28;45641;-60
2022/08/13 17:26:50;;;;;;;;;;;30.50;34.60;;;;;;4912146;28;45166;-61
2022/08/13 17:29:23;;;;;;;;;;;30.50;34.60;;;;;;4912564;28;45752;-61